Time;durP1;ratioP1;P1;durP2;ratioP2;P2;SDS_P1;SDS_P2;PMS_P1;PMS_P2;Temp;Humidity;BMP_temperature;BMP_pressure;BME280_temperature;BME280_humidity;BME280_pressure;Samples;Min_cycle;Max_cycle;Signal;HPM_P1;HPM_P2
2022/08/11 00:01:29;;;;;;;3.13;2.43;;;21.80;47.00;;;;;;7385980;19;20428;-46
2022/08/11 00:04:01;;;;;;;3.07;2.30;;;21.90;46.40;;;;;;7384456;19;20384;-46
2022/08/11 00:06:34;;;;;;;2.63;2.40;;;21.90;46.20;;;;;;7385579;19;20384;-46
2022/08/11 00:09:08;;;;;;;2.33;2.10;;;21.80;46.40;;;;;;7386629;19;20996;-46
2022/08/11 00:11:45;;;;;;;4.50;1.90;;;21.70;46.60;;;;;;7385572;19;20376;-46
2022/08/11 00:14:18;;;;;;;1.60;1.50;;;21.60;46.80;;;;;;7384977;19;20766;-46
2022/08/11 00:17:02;;;;;;;2.93;2.30;;;21.50;47.20;;;;;;7385795;19;20789;-46
2022/08/11 00:19:36;;;;;;;5.60;2.40;;;21.40;47.20;;;;;;7384777;19;20949;-46
2022/08/11 00:22:06;;;;;;;2.20;2.00;;;21.30;47.30;;;;;;7386662;19;20367;-46
2022/08/11 00:24:38;;;;;;;2.40;1.63;;;21.30;47.40;;;;;;7381619;19;20380;-46
2022/08/11 00:27:10;;;;;;;2.50;1.90;;;21.30;47.60;;;;;;7384570;19;20379;-46
2022/08/11 00:29:39;;;;;;;2.40;2.20;;;21.20;47.50;;;;;;7385744;19;20384;-46
2022/08/11 00:32:16;;;;;;;2.67;1.80;;;21.20;47.50;;;;;;7384287;19;20380;-47
2022/08/11 00:34:48;;;;;;;3.90;1.97;;;21.10;47.70;;;;;;7378405;19;20376;-46
2022/08/11 00:37:22;;;;;;;2.50;1.83;;;21.00;48.20;;;;;;7383884;19;20383;-46
2022/08/11 00:39:57;;;;;;;2.23;2.03;;;21.10;52.20;;;;;;7385144;19;20380;-46
2022/08/11 00:42:47;;;;;;;3.60;2.00;;;21.00;54.70;;;;;;7385878;19;20376;-46
2022/08/11 00:45:27;;;;;;;2.40;2.20;;;21.10;54.70;;;;;;7386768;19;20373;-46
2022/08/11 00:48:05;;;;;;;3.13;2.23;;;20.90;56.40;;;;;;7386158;19;20375;-46
2022/08/11 00:50:45;;;;;;;1.90;1.80;;;20.80;59.80;;;;;;7387801;19;21456;-46
2022/08/11 00:53:32;;;;;;;1.90;1.80;;;20.80;51.60;;;;;;7383934;19;20413;-46
2022/08/11 00:56:26;;;;;;;2.10;2.00;;;20.90;48.50;;;;;;7387108;19;20372;-46
2022/08/11 00:59:33;;;;;;;2.30;2.10;;;20.80;48.70;;;;;;7385499;19;20375;-46
2022/08/11 01:02:16;;;;;;;3.00;1.93;;;20.70;48.80;;;;;;7381988;19;21038;-45
2022/08/11 01:05:18;;;;;;;3.37;2.00;;;20.70;48.90;;;;;;7380953;19;20747;-46
2022/08/11 01:08:20;;;;;;;8.27;2.33;;;20.60;49.00;;;;;;7384925;19;20386;-45
2022/08/11 01:11:28;;;;;;;2.97;1.97;;;20.60;49.20;;;;;;7388017;19;20786;-45
2022/08/11 01:14:41;;;;;;;2.20;2.00;;;20.70;48.80;;;;;;7384189;19;20396;-45
2022/08/11 01:17:56;;;;;;;2.23;2.00;;;20.90;48.50;;;;;;7386089;19;20771;-45
2022/08/11 01:20:50;;;;;;;2.30;2.10;;;21.10;48.30;;;;;;7385532;19;20946;-46
2022/08/11 01:23:56;;;;;;;2.33;1.67;;;21.20;47.80;;;;;;7382893;19;20825;-45
2022/08/11 01:26:57;;;;;;;2.10;1.90;;;21.20;48.00;;;;;;7384585;19;20379;-45
2022/08/11 01:30:08;;;;;;;3.93;2.00;;;21.30;47.90;;;;;;7384818;19;20377;-46
2022/08/11 01:33:13;;;;;;;2.60;2.07;;;21.20;48.10;;;;;;7384448;19;20467;-45
2022/08/11 01:36:28;;;;;;;2.03;1.90;;;21.10;48.10;;;;;;7380493;19;20376;-45
2022/08/11 01:39:32;;;;;;;3.07;2.07;;;20.90;48.60;;;;;;7378381;19;20364;-45
2022/08/11 01:45:18;;;;;;;3.67;1.80;;;20.60;49.50;;;;;;7373818;19;20376;-45
2022/08/11 01:47:57;;;;;;;2.37;2.17;;;20.60;49.60;;;;;;7368610;19;20372;-46
2022/08/11 01:50:39;;;;;;;3.13;2.00;;;20.60;49.80;;;;;;7383432;19;20877;-45
2022/08/11 01:53:25;;;;;;;2.40;2.20;;;20.70;49.70;;;;;;7378950;19;20376;-45
2022/08/11 01:56:07;;;;;;;2.00;1.80;;;20.50;50.00;;;;;;7383938;19;20383;-45
2022/08/11 01:58:46;;;;;;;4.37;2.33;;;20.40;50.20;;;;;;7385316;19;20894;-45
2022/08/11 02:01:34;;;;;;;2.53;1.70;;;20.30;50.60;;;;;;7383947;19;20440;-46
2022/08/11 02:04:18;;;;;;;2.87;2.17;;;20.30;50.80;;;;;;7381397;19;20388;-46
2022/08/11 02:06:57;;;;;;;2.37;2.03;;;20.20;51.00;;;;;;7383582;19;20444;-46
2022/08/11 02:09:45;;;;;;;2.53;2.30;;;20.00;51.30;;;;;;7380471;19;20384;-46
2022/08/11 02:12:20;;;;;;;2.10;1.93;;;20.10;51.40;;;;;;7379687;19;21017;-46
2022/08/11 02:14:59;;;;;;;2.50;2.30;;;20.00;51.20;;;;;;7380201;19;20418;-46
2022/08/11 02:17:43;;;;;;;2.47;2.27;;;20.10;51.30;;;;;;7385513;19;20380;-46
2022/08/11 02:25:59;;;;;;;3.90;2.30;;;20.60;50.60;;;;;;7385019;19;20742;-46
2022/08/11 02:28:37;;;;;;;4.67;2.90;;;20.80;49.80;;;;;;7381728;19;20905;-46
2022/08/11 02:34:07;;;;;;;2.80;2.60;;;20.70;50.40;;;;;;7377159;19;20914;-46
2022/08/11 02:36:50;;;;;;;3.00;2.50;;;20.60;50.70;;;;;;7381848;19;20431;-46
2022/08/11 02:39:24;;;;;;;2.80;2.60;;;20.50;50.90;;;;;;7380430;19;21214;-46
2022/08/11 02:45:10;;;;;;;5.30;2.37;;;20.60;50.90;;;;;;7383528;19;20717;-46
2022/08/11 02:49:52;;;;;;;3.37;2.40;;;20.60;50.90;;;;;;7388388;19;20898;-46
2022/08/11 02:50:41;;;;;;;2.87;2.67;;;20.70;50.90;;;;;;7391834;19;20732;-46
2022/08/11 02:53:28;;;;;;;2.57;2.20;;;20.50;51.00;;;;;;7389758;19;20793;-46
2022/08/11 02:56:04;;;;;;;2.70;2.50;;;20.50;51.20;;;;;;7389426;19;20735;-46
2022/08/11 02:59:49;;;;;;;3.90;2.23;;;20.30;51.80;;;;;;7391664;19;20376;-46
2022/08/11 03:01:51;;;;;;;3.23;2.63;;;20.20;52.30;;;;;;7387897;19;20995;-46
2022/08/11 03:04:28;;;;;;;2.53;2.20;;;20.10;52.40;;;;;;7386678;19;20395;-46
2022/08/11 03:07:06;;;;;;;5.63;3.30;;;20.00;52.60;;;;;;7389350;19;20897;-46
2022/08/11 03:09:47;;;;;;;3.60;2.80;;;20.00;53.10;;;;;;7389590;19;20968;-46
2022/08/11 03:18:12;;;;;;;2.23;2.03;;;19.60;53.70;;;;;;7391116;19;20379;-46
2022/08/11 03:20:48;;;;;;;4.00;2.53;;;19.50;54.00;;;;;;7390759;19;20809;-46
2022/08/11 03:23:27;;;;;;;2.33;2.10;;;19.40;54.50;;;;;;7387865;19;20372;-46
2022/08/11 03:26:04;;;;;;;3.50;2.70;;;19.50;54.40;;;;;;7387667;19;20383;-46
2022/08/11 03:28:38;;;;;;;3.43;2.73;;;19.50;54.20;;;;;;7389879;19;20391;-46
2022/08/11 03:31:23;;;;;;;3.80;2.80;;;19.40;54.40;;;;;;7388771;19;20777;-45
2022/08/11 03:34:02;;;;;;;2.27;2.17;;;19.50;54.20;;;;;;7386990;19;20957;-46
2022/08/11 03:37:02;;;;;;;2.83;2.63;;;19.40;55.00;;;;;;7389208;19;20435;-45
2022/08/11 03:39:43;;;;;;;3.10;2.67;;;19.70;54.10;;;;;;7389725;19;20379;-45
2022/08/11 03:42:21;;;;;;;3.30;2.87;;;19.60;54.10;;;;;;7389657;19;20726;-45
2022/08/11 03:45:01;;;;;;;4.87;2.40;;;19.60;54.10;;;;;;7390410;19;20483;-45
2022/08/11 03:47:58;;;;;;;5.20;2.97;;;19.60;54.10;;;;;;7390901;19;20856;-45
2022/08/11 03:50:54;;;;;;;2.80;2.60;;;19.50;54.20;;;;;;7388177;19;20420;-45
2022/08/11 03:53:41;;;;;;;2.80;2.30;;;19.60;54.30;;;;;;7388224;19;20380;-45
2022/08/11 03:56:49;;;;;;;3.53;2.60;;;19.40;54.50;;;;;;7389819;19;20741;-45
2022/08/11 03:59:52;;;;;;;2.63;2.40;;;19.50;54.50;;;;;;7386994;19;20383;-45
2022/08/11 04:02:39;;;;;;;3.07;2.53;;;19.40;54.80;;;;;;7387169;19;20368;-46
2022/08/11 04:05:45;;;;;;;4.20;2.30;;;19.40;55.10;;;;;;7385073;19;20403;-46
2022/08/11 04:08:49;;;;;;;3.03;2.73;;;19.40;54.80;;;;;;7388840;19;20470;-46
2022/08/11 04:11:53;;;;;;;4.27;3.60;;;19.40;54.80;;;;;;7388891;19;20893;-46
2022/08/11 04:18:03;;;;;;;3.00;2.00;;;19.00;55.60;;;;;;7387536;19;21024;-46
2022/08/11 04:20:52;;;;;;;3.27;3.00;;;19.00;55.80;;;;;;7385716;19;20388;-46
2022/08/11 04:23:44;;;;;;;3.57;3.27;;;19.00;55.80;;;;;;7387368;19;20405;-46
2022/08/11 04:26:49;;;;;;;3.27;2.97;;;19.00;56.00;;;;;;7383019;19;20381;-46
2022/08/11 04:29:30;;;;;;;3.40;3.10;;;19.00;56.10;;;;;;7387682;19;20375;-46
2022/08/11 04:32:12;;;;;;;3.63;2.50;;;18.70;56.60;;;;;;7386428;19;20368;-46
2022/08/11 04:35:00;;;;;;;3.03;2.77;;;18.60;56.90;;;;;;7387815;19;20379;-46
2022/08/11 04:37:52;;;;;;;8.83;2.87;;;18.70;57.00;;;;;;7371257;19;20396;-46
2022/08/11 04:41:13;;;;;;;2.97;2.50;;;19.00;56.50;;;;;;7381779;19;20955;-45
2022/08/11 04:44:21;;;;;;;7.17;3.23;;;19.00;56.40;;;;;;7387831;19;20376;-45
2022/08/11 04:47:09;;;;;;;3.23;2.70;;;19.00;56.40;;;;;;7383491;19;20512;-45
2022/08/11 05:02:41;;;;;;;6.17;4.30;;;18.80;57.10;;;;;;7375330;19;20443;-45
2022/08/11 05:05:34;;;;;;;4.63;3.20;;;18.90;56.90;;;;;;7383288;19;20399;-45
2022/08/11 05:08:42;;;;;;;5.17;3.20;;;19.10;56.70;;;;;;7381136;19;21132;-45
2022/08/11 05:11:40;;;;;;;4.83;3.30;;;19.10;56.70;;;;;;7380857;19;20376;-46
2022/08/11 05:36:54;;;;;;;5.83;3.23;;;19.40;57.00;;;;;;7386527;19;20920;-46
2022/08/11 05:58:45;;;;;;;9.70;3.80;;;20.60;54.70;;;;;;7382738;19;20372;-46
2022/08/11 06:01:24;;;;;;;4.77;3.90;;;20.80;54.40;;;;;;7383082;19;20428;-46
2022/08/11 06:06:41;;;;;;;5.87;3.30;;;21.10;53.80;;;;;;7384333;19;20894;-46
2022/08/11 06:09:13;;;;;;;5.60;3.57;;;21.20;53.80;;;;;;7385461;19;20417;-46
2022/08/11 06:11:44;;;;;;;6.53;3.70;;;21.30;53.20;;;;;;7383642;19;20970;-46
2022/08/11 06:14:17;;;;;;;4.27;3.53;;;21.30;53.10;;;;;;7381727;19;20712;-45
2022/08/11 06:16:50;;;;;;;11.00;3.77;;;21.50;52.80;;;;;;7386086;19;20803;-46
2022/08/11 06:19:23;;;;;;;4.63;3.53;;;21.70;52.40;;;;;;7382130;19;20387;-45
2022/08/11 06:21:54;;;;;;;3.97;3.30;;;21.70;52.00;;;;;;7382186;19;20372;-46
2022/08/11 06:24:27;;;;;;;7.20;3.90;;;21.90;52.30;;;;;;7384181;19;20379;-46
2022/08/11 06:27:02;;;;;;;6.00;4.50;;;22.10;51.80;;;;;;7382161;19;20952;-46
2022/08/11 06:29:40;;;;;;;5.10;3.10;;;22.30;51.40;;;;;;7383964;19;20391;-46
2022/08/11 06:32:15;;;;;;;5.40;3.70;;;22.50;50.30;;;;;;7383015;19;20416;-46
2022/08/11 06:35:00;;;;;;;5.50;3.07;;;22.70;50.10;;;;;;7380614;19;20387;-48
2022/08/11 06:37:44;;;;;;;7.23;3.90;;;22.90;50.00;;;;;;7384710;19;20387;-46
2022/08/11 06:40:21;;;;;;;4.90;3.27;;;23.00;49.50;;;;;;7384467;19;20528;-45
2022/08/11 06:43:00;;;;;;;3.70;2.93;;;23.10;48.90;;;;;;7383992;19;20392;-45
2022/08/11 06:45:42;;;;;;;4.87;3.93;;;23.20;48.70;;;;;;7381635;19;20376;-45
2022/08/11 06:48:18;;;;;;;3.47;2.97;;;23.40;48.40;;;;;;7383447;19;20383;-46
2022/08/11 06:53:36;;;;;;;7.50;4.10;;;23.80;48.10;;;;;;7381285;19;20390;-45
2022/08/11 07:01:46;;;;;;;6.07;3.33;;;24.10;47.30;;;;;;7380924;19;20503;-45
2022/08/11 07:04:24;;;;;;;4.17;3.23;;;24.20;47.20;;;;;;7382099;19;20481;-45
2022/08/11 07:15:43;;;;;;;4.20;3.20;;;24.70;45.80;;;;;;7382087;19;20435;-47
2022/08/11 07:29:34;;;;;;;4.03;2.97;;;25.50;45.00;;;;;;7381445;19;20371;-47
2022/08/11 07:32:16;;;;;;;4.00;3.20;;;25.70;44.60;;;;;;7381030;19;20447;-47
2022/08/11 07:34:54;;;;;;;5.00;3.00;;;25.90;44.40;;;;;;7383096;19;20460;-47
2022/08/11 07:37:26;;;;;;;4.07;3.23;;;26.10;44.00;;;;;;7386218;19;21175;-47
2022/08/11 07:39:56;;;;;;;4.00;3.20;;;26.20;43.60;;;;;;7388385;19;20383;-47
2022/08/11 07:42:34;;;;;;;5.30;3.17;;;26.30;43.20;;;;;;7388718;19;20360;-47
2022/08/11 07:53:18;;;;;;;4.67;2.77;;;26.90;42.40;;;;;;7386803;19;20447;-47
2022/08/11 07:55:51;;;;;;;4.03;3.03;;;27.10;42.00;;;;;;7387432;19;20411;-47
2022/08/11 08:20:16;;;;;;;5.20;3.20;;;28.00;39.70;;;;;;7388842;19;20387;-47
2022/08/11 08:22:50;;;;;;;6.30;3.20;;;28.20;39.30;;;;;;7388095;19;20380;-47
2022/08/11 08:25:21;;;;;;;4.37;3.20;;;28.30;39.10;;;;;;7388129;19;20375;-47
2022/08/11 08:27:52;;;;;;;3.10;2.80;;;28.50;39.00;;;;;;7385658;19;20376;-47
2022/08/11 08:33:05;;;;;;;3.37;2.60;;;28.60;38.30;;;;;;7386207;19;20376;-47
2022/08/11 08:35:36;;;;;;;8.60;2.90;;;28.70;37.70;;;;;;7387732;19;20886;-47
2022/08/11 08:38:10;;;;;;;5.30;2.87;;;29.00;37.60;;;;;;7387930;19;20380;-48
2022/08/11 08:40:44;;;;;;;2.73;2.40;;;29.20;36.80;;;;;;7386634;19;20404;-47
2022/08/11 08:43:17;;;;;;;5.27;2.63;;;29.30;36.30;;;;;;7385918;19;20387;-47
2022/08/11 08:45:47;;;;;;;4.50;2.63;;;29.50;35.70;;;;;;7383940;19;20464;-47
2022/08/11 08:48:19;;;;;;;2.90;2.30;;;29.70;35.80;;;;;;7386905;19;20922;-47
2022/08/11 08:53:45;;;;;;;2.93;2.47;;;30.20;35.10;;;;;;7385902;19;20368;-47
2022/08/11 08:56:15;;;;;;;2.40;2.20;;;30.40;34.70;;;;;;7384952;19;20380;-47
2022/08/11 08:58:50;;;;;;;3.10;2.80;;;30.30;34.40;;;;;;7385737;19;20384;-47
2022/08/11 09:01:24;;;;;;;4.27;2.40;;;30.50;34.40;;;;;;7384340;19;20515;-47
2022/08/11 09:03:54;;;;;;;2.63;2.43;;;30.60;34.10;;;;;;7384709;19;20395;-47
2022/08/11 09:06:23;;;;;;;4.27;3.00;;;30.80;34.00;;;;;;7387750;19;20420;-47
2022/08/11 09:08:56;;;;;;;2.50;2.30;;;30.90;33.30;;;;;;7385376;19;20380;-48
2022/08/11 09:14:08;;;;;;;3.10;1.93;;;31.60;32.30;;;;;;7385557;19;20387;-48
2022/08/11 09:16:40;;;;;;;2.83;2.40;;;31.80;31.70;;;;;;7385448;19;20736;-48
2022/08/11 09:19:10;;;;;;;2.63;2.43;;;32.00;31.50;;;;;;7386700;19;20387;-48
2022/08/11 09:21:43;;;;;;;2.50;2.03;;;32.50;31.30;;;;;;7388004;19;20373;-48
2022/08/11 09:27:02;;;;;;;2.40;2.20;;;33.10;29.80;;;;;;7387091;19;20384;-48
2022/08/11 09:29:33;;;;;;;3.30;2.20;;;32.80;30.00;;;;;;7385431;19;20376;-48
2022/08/11 09:32:04;;;;;;;2.67;2.27;;;33.00;29.40;;;;;;7385018;19;20364;-49
2022/08/11 09:34:36;;;;;;;4.30;2.10;;;33.50;29.60;;;;;;7384471;19;20388;-49
2022/08/11 09:45:26;;;;;;;2.60;2.40;;;34.60;28.00;;;;;;7384956;19;20439;-48
2022/08/11 09:47:57;;;;;;;3.03;2.23;;;35.20;27.80;;;;;;7384911;19;20379;-48
2022/08/11 09:50:27;;;;;;;3.77;2.50;;;35.60;26.80;;;;;;7384263;19;21437;-47
2022/08/11 09:52:57;;;;;;;2.17;1.80;;;35.60;26.80;;;;;;7385101;19;20447;-47
2022/08/11 09:55:29;;;;;;;2.80;1.60;;;35.50;26.70;;;;;;7384124;19;20380;-47
2022/08/11 09:58:12;;;;;;;1.80;1.70;;;35.70;26.10;;;;;;7384893;19;20786;-47
2022/08/11 10:00:42;;;;;;;3.53;2.23;;;35.50;26.50;;;;;;7382709;19;20432;-47
2022/08/11 10:03:15;;;;;;;2.63;2.00;;;35.70;26.00;;;;;;7384533;19;20482;-47
2022/08/11 10:08:32;;;;;;;2.20;1.90;;;36.10;26.30;;;;;;7383666;19;20977;-47
2022/08/11 10:11:08;;;;;;;2.40;1.90;;;36.90;25.60;;;;;;7384288;19;20391;-48
2022/08/11 10:16:28;;;;;;;2.40;1.90;;;38.00;24.80;;;;;;7383270;19;20385;-48
2022/08/11 10:19:01;;;;;;;2.43;1.67;;;38.30;23.80;;;;;;7382568;19;20860;-47
2022/08/11 10:21:37;;;;;;;2.30;2.10;;;38.20;24.30;;;;;;7385325;19;20380;-48
2022/08/11 10:27:01;;;;;;;3.83;2.03;;;38.60;23.60;;;;;;7384222;19;20376;-48
2022/08/11 10:34:58;;;;;;;1.83;1.60;;;40.00;23.40;;;;;;7382074;19;20379;-48
2022/08/11 10:37:33;;;;;;;2.67;1.73;;;39.60;22.40;;;;;;7383746;19;20387;-48
2022/08/11 10:40:07;;;;;;;3.43;2.00;;;39.50;22.90;;;;;;7384811;19;20383;-48
2022/08/11 10:48:09;;;;;;;3.07;1.77;;;38.90;23.20;;;;;;7384225;19;20804;-48
2022/08/11 10:58:51;;;;;;;1.83;1.60;;;40.80;22.00;;;;;;7382983;19;20372;-49
2022/08/11 11:01:25;;;;;;;2.40;1.43;;;41.60;21.50;;;;;;7380374;19;20432;-49
2022/08/11 11:04:00;;;;;;;4.30;1.67;;;42.20;21.50;;;;;;7383743;19;20390;-49
2022/08/11 11:06:35;;;;;;;3.50;1.63;;;43.00;21.00;;;;;;7382189;19;20411;-49
2022/08/11 11:09:12;;;;;;;2.50;2.30;;;42.80;20.50;;;;;;7390257;19;20417;-49
2022/08/11 11:20:07;;;;;;;2.60;1.70;;;43.60;20.30;;;;;;7391663;19;20804;-48
2022/08/11 11:22:39;;;;;;;3.60;2.10;;;44.20;20.00;;;;;;7390651;19;20773;-48
2022/08/11 11:25:22;;;;;;;2.10;1.63;;;43.90;19.90;;;;;;7391865;19;20412;-48
2022/08/11 11:28:28;;;;;;;2.30;1.90;;;44.10;19.90;;;;;;7389670;19;20376;-49
2022/08/11 11:31:13;;;;;;;2.27;2.07;;;44.20;19.60;;;;;;7391198;19;20387;-48
2022/08/11 11:34:11;;;;;;;2.60;2.10;;;45.10;19.40;;;;;;7387888;19;20472;-48
2022/08/11 11:36:47;;;;;;;2.40;1.67;;;44.90;19.20;;;;;;7388606;19;20388;-49
2022/08/11 11:39:20;;;;;;;4.30;1.73;;;44.70;19.10;;;;;;7389458;19;20400;-48
2022/08/11 11:41:51;;;;;;;3.60;2.33;;;44.80;18.90;;;;;;7387867;19;20397;-48
2022/08/11 11:44:22;;;;;;;4.10;3.70;;;45.20;19.10;;;;;;7388487;19;20896;-48
2022/08/11 11:46:55;;;;;;;1.80;1.70;;;45.80;18.80;;;;;;7389801;19;20942;-48
2022/08/11 11:49:27;;;;;;;3.03;1.73;;;46.40;18.50;;;;;;7388045;19;20368;-49
2022/08/11 11:51:58;;;;;;;1.90;1.40;;;46.80;17.90;;;;;;7390172;19;20376;-50
2022/08/11 11:54:32;;;;;;;1.40;1.30;;;46.90;18.00;;;;;;7388703;19;20402;-50
2022/08/11 12:01:14;;;;;;;1.80;1.50;;;45.90;18.20;;;;;;7389489;19;20383;-50
2022/08/11 12:02:44;;;;;;;2.87;1.23;;;44.40;18.90;;;;;;7389955;19;20407;-50
2022/08/11 12:05:14;;;;;;;2.00;1.50;;;43.90;18.80;;;;;;7385314;19;20396;-50
2022/08/11 12:10:27;;;;;;;1.70;1.60;;;45.40;18.50;;;;;;7388384;19;20902;-50
2022/08/11 12:15:42;;;;;;;2.40;1.40;;;45.90;17.90;;;;;;7386741;19;20380;-50
2022/08/11 12:18:14;;;;;;;1.90;1.53;;;45.90;18.20;;;;;;7387641;19;20380;-50
2022/08/11 12:20:44;;;;;;;1.53;1.43;;;45.80;18.20;;;;;;7384878;19;20365;-50
2022/08/11 12:28:39;;;;;;;3.90;1.60;;;46.10;18.00;;;;;;7386780;19;20391;-50
2022/08/11 12:31:10;;;;;;;2.73;2.00;;;46.10;17.90;;;;;;7388205;19;20512;-50
2022/08/11 12:33:44;;;;;;;1.63;1.53;;;46.30;18.10;;;;;;7385858;19;20766;-51
2022/08/11 12:36:16;;;;;;;2.30;1.50;;;46.90;17.40;;;;;;7383919;19;20721;-50
2022/08/11 12:38:49;;;;;;;2.00;1.90;;;46.40;17.40;;;;;;7387646;19;20758;-50
2022/08/11 12:46:48;;;;;;;3.20;1.60;;;46.60;17.80;;;;;;7387728;19;20397;-50
2022/08/11 12:52:07;;;;;;;2.33;1.53;;;45.90;18.00;;;;;;7384902;19;20384;-48
2022/08/11 12:54:40;;;;;;;3.37;1.77;;;;;;;;;;7388300;19;20799;-48
2022/08/11 13:05:24;;;;;;;2.27;1.57;;;40.40;21.00;;;;;;7385917;19;20380;-48
2022/08/11 13:07:54;;;;;;;2.40;1.83;;;39.20;21.10;;;;;;7387476;19;20373;-48
2022/08/11 13:13:09;;;;;;;2.80;1.93;;;;;;;;;;7385424;19;20372;-47
2022/08/11 13:15:42;;;;;;;1.97;1.53;;;36.50;22.50;;;;;;7384759;19;20380;-48
2022/08/11 13:18:13;;;;;;;2.33;1.73;;;35.90;23.70;;;;;;7361065;19;20499;-48
2022/08/11 13:20:49;;;;;;;6.07;1.77;;;35.60;23.90;;;;;;7386266;19;20435;-48
2022/08/11 13:23:19;;;;;;;1.90;1.70;;;35.30;23.90;;;;;;7386208;19;20968;-48
2022/08/11 13:25:49;;;;;;;4.00;1.80;;;34.90;24.50;;;;;;7385404;19;20376;-48
2022/08/11 13:28:24;;;;;;;1.80;1.70;;;34.60;24.70;;;;;;7388225;19;20379;-48
2022/08/11 13:33:43;;;;;;;1.60;1.50;;;34.30;24.60;;;;;;7386872;19;20923;-49
2022/08/11 13:36:20;;;;;;;1.53;1.43;;;34.20;24.80;;;;;;7384850;19;20422;-48
2022/08/11 13:38:50;;;;;;;2.37;2.17;;;34.00;25.00;;;;;;7385869;19;20360;-48
2022/08/11 13:44:06;;;;;;;5.00;2.13;;;33.50;25.40;;;;;;7383435;19;20388;-48
2022/08/11 13:46:36;;;;;;;2.93;2.00;;;33.50;25.60;;;;;;7386030;19;20383;-48
2022/08/11 13:49:08;;;;;;;3.33;1.83;;;33.40;25.60;;;;;;7384673;19;20392;-48
2022/08/11 13:51:41;;;;;;;3.47;2.00;;;33.10;25.70;;;;;;7385793;19;20368;-48
2022/08/11 13:54:12;;;;;;;1.70;1.60;;;33.20;26.00;;;;;;7384485;19;20391;-48
2022/08/11 13:56:45;;;;;;;1.50;1.40;;;33.30;25.90;;;;;;7383606;19;20373;-48
2022/08/11 13:59:16;;;;;;;2.00;1.80;;;33.20;25.50;;;;;;7383286;19;20381;-48
2022/08/11 14:01:54;;;;;;;2.77;2.13;;;33.00;25.60;;;;;;7384585;19;20448;-48
2022/08/11 14:04:29;;;;;;;2.00;1.80;;;32.90;25.70;;;;;;7383771;19;20399;-48
2022/08/11 14:07:06;;;;;;;4.93;1.87;;;32.80;25.70;;;;;;7382433;19;20372;-48
2022/08/11 14:09:42;;;;;;;2.40;2.20;;;32.70;25.90;;;;;;7383999;19;20383;-48
2022/08/11 14:15:11;;;;;;;5.93;1.77;;;32.60;26.10;;;;;;7381379;19;20372;-48
2022/08/11 14:17:42;;;;;;;3.90;2.10;;;32.60;26.10;;;;;;7384964;19;20379;-48
2022/08/11 14:20:15;;;;;;;2.37;1.73;;;32.60;26.00;;;;;;7384032;19;20402;-48
2022/08/11 14:22:45;;;;;;;4.20;2.23;;;32.60;26.20;;;;;;7382982;19;20777;-47
2022/08/11 14:25:16;;;;;;;2.93;1.67;;;32.60;26.30;;;;;;7385480;19;20375;-47
2022/08/11 14:27:48;;;;;;;2.47;1.60;;;32.60;26.00;;;;;;7382183;19;20368;-47
2022/08/11 14:33:00;;;;;;;2.80;1.90;;;32.70;25.80;;;;;;7381394;19;20384;-47
2022/08/11 14:35:30;;;;;;;2.03;1.80;;;32.60;25.90;;;;;;7383226;19;20380;-48
2022/08/11 14:38:02;;;;;;;5.87;2.13;;;32.50;26.00;;;;;;7381467;19;20395;-47
2022/08/11 14:48:46;;;;;;;1.50;1.40;;;32.40;25.80;;;;;;7381739;19;20399;-47
2022/08/11 14:51:16;;;;;;;2.87;2.27;;;32.30;26.20;;;;;;7382466;19;20416;-48
2022/08/11 14:56:34;;;;;;;3.97;1.77;;;32.20;26.20;;;;;;7384884;19;20379;-48
2022/08/11 14:56:35;;;;;;;1.73;1.63;;;32.20;26.10;;;;;;7383132;19;20421;-47
2022/08/11 14:59:05;;;;;;;3.53;1.90;;;32.20;26.00;;;;;;7382679;19;20439;-48
2022/08/11 15:04:22;;;;;;;2.83;1.40;;;32.20;25.80;;;;;;7382771;19;20400;-48
2022/08/11 15:06:53;;;;;;;4.90;1.80;;;32.10;25.90;;;;;;7381959;19;20410;-48
2022/08/11 15:09:25;;;;;;;2.30;1.70;;;32.10;26.10;;;;;;7381138;19;20372;-48
2022/08/11 15:12:15;;;;;;;2.70;1.50;;;32.20;26.10;;;;;;7383217;19;20368;-47
2022/08/11 15:17:33;;;;;;;4.77;1.70;;;32.00;25.20;;;;;;7383501;19;20412;-47
2022/08/11 15:25:33;;;;;;;2.70;1.90;;;32.00;26.10;;;;;;7381740;19;20376;-46
2022/08/11 15:39:01;;;;;;;2.97;1.87;;;31.80;25.80;;;;;;7381343;19;20364;-46
2022/08/11 15:47:15;;;;;;;2.77;1.60;;;31.80;25.80;;;;;;7382185;19;20387;-46
2022/08/11 15:49:47;;;;;;;2.00;1.77;;;31.70;25.80;;;;;;7381240;19;20406;-46
2022/08/11 15:52:24;;;;;;;2.50;1.67;;;31.50;26.00;;;;;;7380806;19;20372;-46
2022/08/11 15:54:54;;;;;;;2.20;1.80;;;31.50;26.10;;;;;;7388864;19;20405;-46
2022/08/11 16:05:36;;;;;;;2.03;1.73;;;31.40;26.60;;;;;;7383701;19;20440;-47
2022/08/11 16:08:06;;;;;;;3.60;1.90;;;31.30;26.80;;;;;;7387672;19;20380;-47
2022/08/11 16:10:38;;;;;;;2.20;2.00;;;31.20;26.70;;;;;;7387329;19;20958;-49
2022/08/11 16:18:45;;;;;;;3.10;1.90;;;31.30;27.00;;;;;;7385975;19;20388;-47
2022/08/11 16:21:18;;;;;;;2.33;1.77;;;31.30;27.20;;;;;;7386901;19;20921;-48
2022/08/11 16:23:50;;;;;;;2.37;1.80;;;31.30;27.30;;;;;;7386143;19;20380;-47
2022/08/11 16:26:23;;;;;;;2.07;1.87;;;31.20;27.10;;;;;;7385860;19;20806;-47
2022/08/11 16:28:58;;;;;;;3.20;2.07;;;31.00;27.20;;;;;;7388805;19;20372;-47
2022/08/11 16:31:29;;;;;;;3.07;2.10;;;31.00;27.50;;;;;;7386385;19;21963;-47
2022/08/11 16:33:59;;;;;;;3.87;2.20;;;30.90;27.20;;;;;;7389634;19;20427;-47
2022/08/11 16:39:17;;;;;;;2.93;2.10;;;30.90;27.50;;;;;;7384749;19;20440;-47
2022/08/11 16:47:19;;;;;;;2.47;2.00;;;30.90;27.80;;;;;;7388143;19;20519;-47
2022/08/11 16:49:51;;;;;;;4.40;3.00;;;30.80;27.30;;;;;;7386744;19;20391;-47
2022/08/11 16:52:21;;;;;;;1.70;1.53;;;30.80;27.50;;;;;;7388734;19;20392;-47
2022/08/11 16:54:53;;;;;;;3.87;1.80;;;30.80;27.50;;;;;;7387564;19;20376;-47
2022/08/11 17:00:16;;;;;;;2.20;2.00;;;30.60;27.30;;;;;;7387098;19;20510;-47
2022/08/11 17:13:51;;;;;;;3.60;1.77;;;30.60;27.40;;;;;;7384989;19;20380;-47
2022/08/11 17:16:27;;;;;;;3.60;2.13;;;30.60;27.60;;;;;;7383981;19;20442;-47
2022/08/11 17:19:02;;;;;;;3.10;2.27;;;30.50;27.50;;;;;;7385017;19;20379;-47
2022/08/11 17:21:35;;;;;;;2.50;1.87;;;30.50;27.40;;;;;;7387140;19;20450;-46
2022/08/11 17:24:07;;;;;;;1.97;1.83;;;30.30;27.60;;;;;;7386431;19;20384;-46
2022/08/11 17:26:57;;;;;;;3.00;2.40;;;30.10;27.80;;;;;;7384857;19;20376;-46
2022/08/11 17:29:30;;;;;;;3.20;2.27;;;30.10;27.90;;;;;;7384291;19;20373;-47
2022/08/11 17:37:32;;;;;;;3.43;2.10;;;30.00;28.20;;;;;;7384275;19;20900;-47
2022/08/11 17:40:05;;;;;;;2.37;2.00;;;29.90;28.30;;;;;;7384955;19;20378;-47
2022/08/11 17:50:46;;;;;;;2.93;1.70;;;29.70;28.50;;;;;;7384262;19;20379;-47
2022/08/11 18:01:47;;;;;;;2.13;1.77;;;29.70;28.50;;;;;;7384356;19;20432;-46
2022/08/11 18:04:18;;;;;;;2.17;1.80;;;29.60;28.60;;;;;;7383462;19;20406;-46
2022/08/11 18:06:51;;;;;;;2.53;1.93;;;29.70;28.70;;;;;;7385483;19;20380;-46
